createdAt,value
2023-05-22T05:04:29.396Z,63.23
2023-05-22T05:09:31.321Z,63.11
2023-05-22T05:14:33.842Z,63.26
2023-05-22T05:19:36.961Z,63.15
2023-05-22T05:24:38.974Z,63.04
2023-05-22T05:29:41.156Z,63.31
2023-05-22T05:34:54.167Z,63.35
2023-05-22T05:40:16.140Z,63.25
2023-05-22T05:45:22.530Z,63.59
2023-05-22T05:50:32.285Z,63.26
2023-05-22T05:55:34.721Z,63.21
2023-05-22T06:00:38.977Z,63.25
2023-05-22T06:05:54.217Z,63.24
2023-05-22T06:16:46.352Z,63.11
2023-05-22T06:21:51.489Z,62.84
2023-05-22T06:26:54.931Z,62.74
2023-05-22T06:31:57.858Z,62.87
2023-05-22T06:37:22.386Z,62.92
2023-05-22T06:49:23.596Z,62.60
2023-05-22T06:54:37.301Z,61.90
2023-05-22T06:59:39.953Z,61.29
2023-05-22T07:04:47.604Z,61.33
2023-05-22T07:09:59.482Z,61.11
2023-05-22T07:15:02.927Z,60.54
2023-05-22T07:20:07.344Z,60.85
2023-05-22T07:25:11.469Z,60.25
2023-05-22T07:30:59.074Z,60.20
2023-05-22T07:36:01.243Z,59.26
2023-05-22T07:41:04.690Z,59.26
2023-05-22T07:46:09.649Z,58.44
2023-05-22T07:51:20.034Z,58.84
2023-05-22T07:56:25.990Z,58.29
2023-05-22T08:01:29.065Z,58.20
2023-05-22T08:06:31.134Z,58.20
2023-05-22T08:11:33.869Z,57.53
2023-05-22T08:16:35.527Z,56.52
2023-05-22T08:21:37.943Z,55.43
2023-05-22T08:26:40.985Z,55.14
2023-05-22T08:31:42.561Z,55.05
2023-05-22T08:36:44.394Z,55.28
2023-05-22T08:41:47.770Z,55.64
2023-05-22T08:46:56.473Z,54.71
2023-05-22T08:52:07.878Z,54.58
2023-05-22T08:57:51.486Z,53.81
2023-05-22T09:02:53.784Z,52.80
2023-05-22T09:08:08.365Z,52.26
2023-05-22T09:13:29.357Z,50.05
2023-05-22T09:18:31.905Z,50.10
2023-05-22T09:23:33.516Z,49.52
2023-05-22T09:28:35.668Z,50.79
2023-05-22T09:33:38.794Z,49.29
2023-05-22T09:38:42.891Z,47.13
2023-05-22T09:44:16.296Z,46.39
2023-05-22T09:49:18.004Z,46.45
2023-05-22T09:54:20.350Z,46.28
2023-05-22T09:59:27.239Z,45.86
2023-05-22T10:04:36.042Z,45.81
2023-05-22T10:09:41.385Z,46.29
2023-05-22T10:14:43.554Z,45.79
2023-05-22T10:19:47.062Z,46.83
2023-05-22T10:24:49.449Z,46.26
2023-05-22T10:29:56.351Z,46.25
2023-05-22T10:35:11.647Z,46.27
2023-05-22T10:40:18.315Z,45.87
2023-05-22T10:45:19.991Z,46.82
2023-05-22T10:50:21.529Z,46.20
2023-05-22T10:55:23.126Z,46.77
2023-05-22T11:00:24.708Z,46.84
2023-05-22T11:05:30.553Z,47.24
2023-05-22T11:10:54.993Z,45.95
2023-05-22T11:15:57.655Z,46.43
2023-05-22T11:20:59.740Z,45.77
2023-05-22T11:26:17.737Z,45.89
2023-05-22T11:31:20.455Z,46.54
2023-05-22T11:36:23.354Z,45.88
2023-05-22T11:41:24.863Z,45.43
2023-05-22T11:46:26.841Z,45.11
2023-05-22T11:51:29.073Z,45.82
2023-05-22T12:09:05.784Z,44.14
2023-05-22T12:19:59.372Z,44.84
2023-05-22T12:25:03.546Z,43.93
2023-05-22T12:30:10.670Z,44.26
2023-05-22T12:40:42.703Z,43.94
2023-05-22T12:45:45.160Z,43.74
2023-05-22T12:50:47.331Z,43.61
2023-05-22T12:55:48.877Z,43.88
2023-05-22T13:00:50.407Z,42.85
2023-05-22T13:05:52.467Z,39.45
2023-05-22T13:30:53.019Z,34.13
2023-05-22T13:35:55.191Z,34.13
2023-05-22T13:40:57.448Z,34.93
2023-05-22T13:45:59.387Z,35.79
2023-05-22T13:51:09.226Z,36.23
2023-05-22T13:56:11.760Z,37.21
2023-05-22T14:01:35.047Z,36.47
2023-05-22T14:06:36.753Z,37.81
2023-05-22T14:11:38.424Z,37.52
2023-05-22T14:16:41.015Z,37.43
2023-05-22T14:35:51.175Z,38.63
2023-05-22T14:40:53.482Z,37.76
2023-05-22T14:45:56.719Z,38.13
2023-05-22T14:50:58.402Z,38.12
2023-05-22T14:55:59.920Z,38.67
2023-05-22T15:01:01.414Z,38.49
2023-05-22T15:06:03.071Z,38.69
2023-05-22T15:11:04.684Z,38.93
2023-05-22T15:16:06.231Z,38.27
2023-05-22T15:21:08.115Z,38.60
2023-05-22T15:26:09.919Z,40.42
2023-05-22T15:31:13.273Z,41.15
2023-05-22T15:36:14.929Z,41.00
2023-05-22T15:41:16.425Z,40.61
2023-05-22T15:46:18.017Z,40.16
2023-05-22T15:51:19.545Z,39.80
2023-05-22T15:56:21.445Z,40.00
2023-05-22T16:01:23.004Z,39.37
2023-05-22T16:06:24.570Z,38.78
2023-05-22T16:11:26.093Z,39.15
2023-05-22T16:16:27.831Z,38.87
2023-05-22T16:21:29.613Z,37.98
2023-05-22T16:26:31.089Z,37.41
2023-05-22T16:36:36.767Z,35.69
2023-05-22T16:41:38.613Z,35.89
2023-05-22T16:46:40.100Z,36.11
2023-05-22T16:51:41.616Z,36.45
2023-05-22T16:56:43.083Z,36.98
2023-05-22T17:01:44.668Z,37.35
2023-05-22T17:06:46.283Z,37.54
2023-05-22T17:11:48.278Z,37.87
2023-05-22T17:16:49.843Z,38.14
2023-05-22T17:21:51.358Z,38.55
2023-05-22T17:26:52.875Z,38.77
2023-05-22T17:31:54.416Z,39.38
2023-05-22T17:36:55.881Z,39.51
2023-05-22T17:41:59.051Z,39.96
2023-05-22T17:47:01.787Z,40.52
2023-05-22T17:52:03.255Z,41.33
2023-05-22T17:57:04.696Z,41.23
2023-05-22T18:02:06.730Z,41.67
2023-05-22T18:07:08.214Z,42.52
2023-05-22T18:12:15.242Z,42.10
2023-05-22T18:17:26.381Z,42.35
2023-05-22T18:22:27.872Z,42.97
2023-05-22T18:27:29.424Z,43.42
2023-05-22T18:32:31.154Z,43.02
2023-05-22T18:37:32.814Z,43.45
2023-05-22T18:42:34.219Z,43.35
2023-05-22T18:47:35.964Z,43.92
2023-05-22T18:52:38.027Z,44.42
2023-05-22T18:57:39.517Z,44.59
2023-05-22T19:02:41.024Z,44.52
2023-05-22T19:07:42.626Z,44.89
2023-05-22T19:12:44.219Z,45.25
2023-05-22T19:17:45.725Z,45.47
2023-05-22T19:22:47.287Z,45.46
2023-05-22T19:27:48.892Z,45.87
2023-05-22T19:32:50.431Z,45.98
2023-05-22T19:37:51.915Z,46.30
2023-05-22T19:42:53.387Z,46.51
2023-05-22T19:47:55.648Z,46.88
2023-05-22T19:52:57.174Z,47.13
2023-05-22T19:57:58.736Z,47.22
2023-05-22T20:03:00.513Z,47.40
2023-05-22T20:08:01.990Z,47.08
2023-05-22T20:13:05.100Z,47.37
2023-05-22T20:18:08.360Z,47.74
2023-05-22T20:23:09.894Z,47.90
2023-05-22T20:28:11.630Z,48.12
2023-05-22T20:33:14.290Z,48.49
2023-05-22T20:38:16.022Z,48.35
2023-05-22T20:43:18.496Z,48.46
2023-05-22T20:48:20.054Z,48.92
2023-05-22T20:53:21.539Z,48.77
2023-05-22T20:58:23.236Z,49.01
2023-05-22T21:03:25.935Z,48.97
2023-05-22T21:08:27.672Z,48.80
2023-05-22T21:13:29.164Z,49.05
2023-05-22T21:18:30.988Z,49.09
2023-05-22T21:23:32.366Z,49.00
2023-05-22T21:28:33.866Z,49.07
2023-05-22T21:33:35.438Z,49.17
2023-05-22T21:38:36.955Z,49.45
2023-05-22T21:43:38.709Z,49.51
2023-05-22T21:48:40.301Z,50.03
2023-05-22T21:53:42.018Z,50.43
2023-05-22T21:58:43.533Z,50.94
